createdAt,value
2019-06-18T00:01:02.031Z,982.91
2019-06-18T00:02:13.679Z,982.97
2019-06-18T00:03:26.146Z,982.98
2019-06-18T00:04:41.165Z,983
2019-06-18T00:05:53.916Z,982.92
2019-06-18T00:07:05.861Z,982.97
2019-06-18T00:08:16.393Z,982.92
2019-06-18T00:09:27.689Z,982.91
2019-06-18T00:10:41.247Z,982.92
2019-06-18T00:11:53.922Z,982.98
2019-06-18T00:13:05.830Z,982.96
2019-06-18T00:14:16.715Z,982.96
2019-06-18T00:15:41.682Z,982.92
2019-06-18T00:17:01.813Z,982.97
2019-06-18T00:18:13.355Z,982.99
2019-06-18T00:19:25.913Z,982.96
2019-06-18T00:20:36.713Z,982.93
2019-06-18T00:21:51.426Z,982.99
2019-06-18T00:23:04.455Z,982.96
2019-06-18T00:24:17.188Z,983.02
2019-06-18T00:25:30.677Z,982.97
2019-06-18T00:26:43.356Z,982.96
2019-06-18T00:27:55.999Z,982.96
2019-06-18T00:29:07.002Z,982.96
2019-06-18T00:30:22.484Z,982.96
2019-06-18T00:31:34.492Z,982.92
2019-06-18T00:32:45.848Z,982.9
2019-06-18T00:33:56.387Z,982.92
2019-06-18T00:35:10.756Z,982.93
2019-06-18T00:36:22.081Z,982.98
2019-06-18T00:37:33.995Z,982.98
2019-06-18T00:38:45.823Z,983.07
2019-06-18T00:39:55.778Z,983.06
2019-06-18T00:41:09.590Z,983.1
2019-06-18T00:42:20.173Z,983.06
2019-06-18T00:43:37.060Z,983.05
2019-06-18T00:44:48.064Z,983.09
2019-06-18T00:46:04.097Z,983.08
2019-06-18T00:47:16.749Z,983.12
2019-06-18T00:48:28.520Z,983.07
2019-06-18T00:49:40.014Z,983.08
2019-06-18T00:50:51.969Z,983.1
2019-06-18T00:52:03.802Z,983.06
2019-06-18T00:53:17.868Z,983.06
2019-06-18T00:54:30.040Z,983.09
2019-06-18T00:55:42.318Z,983.09
2019-06-18T00:56:55.012Z,983.06
2019-06-18T00:58:08.449Z,983.02
2019-06-18T00:59:20.717Z,982.98
2019-06-18T01:00:32.134Z,982.97
2019-06-18T01:01:47.157Z,983
2019-06-18T01:02:59.646Z,983.01
2019-06-18T01:04:10.705Z,983.02
2019-06-18T01:05:22.833Z,983
2019-06-18T01:06:34.608Z,982.93
2019-06-18T01:07:48.057Z,982.95
2019-06-18T01:08:59.993Z,982.94
2019-06-18T01:10:12.624Z,982.98
2019-06-18T01:11:23.996Z,982.98
2019-06-18T01:12:37.790Z,982.96
2019-06-18T01:13:50.065Z,982.97
2019-06-18T01:15:02.782Z,983.02
2019-06-18T01:16:19.427Z,983.05
2019-06-18T01:17:33.353Z,983.02
2019-06-18T01:18:47.149Z,983.05
2019-06-18T01:19:59.916Z,983.04
2019-06-18T01:21:12.376Z,983.05
2019-06-18T01:22:27.792Z,983.03
2019-06-18T01:23:42.916Z,983.04
2019-06-18T01:25:07.630Z,983.03
2019-06-18T01:26:22.147Z,982.99
2019-06-18T01:27:33.432Z,982.96
2019-06-18T01:28:46.051Z,982.98
2019-06-18T01:29:58.342Z,982.97
2019-06-18T01:31:13.342Z,982.98
2019-06-18T01:32:25.637Z,982.93
2019-06-18T01:33:38.057Z,982.92
2019-06-18T01:34:53.888Z,982.88
2019-06-18T01:36:05.494Z,982.92
2019-06-18T01:37:18.157Z,982.88
2019-06-18T01:38:32.537Z,982.89
2019-06-18T01:39:43.868Z,982.91
2019-06-18T01:40:55.463Z,982.94
2019-06-18T01:42:07.706Z,982.96
2019-06-18T01:43:22.831Z,982.99
2019-06-18T01:44:33.871Z,982.98
2019-06-18T01:45:45.426Z,982.96
2019-06-18T01:46:57.849Z,982.94
2019-06-18T01:48:12.612Z,982.92
2019-06-18T01:49:25.187Z,982.92
2019-06-18T01:50:37.481Z,982.89
2019-06-18T01:51:48.278Z,982.88
2019-06-18T01:53:00.170Z,982.89
2019-06-18T01:54:13.997Z,982.88
2019-06-18T01:55:26.168Z,982.89
2019-06-18T01:56:38.994Z,982.87
2019-06-18T01:57:53.841Z,982.85
2019-06-18T01:59:05.733Z,982.82
2019-06-18T02:00:17.832Z,982.86
2019-06-18T02:01:33.745Z,982.84
2019-06-18T02:02:45.878Z,982.81
2019-06-18T02:03:59.023Z,982.8
2019-06-18T02:05:13.592Z,982.85
2019-06-18T02:06:25.929Z,982.85
2019-06-18T02:07:38.269Z,982.85
2019-06-18T02:08:52.404Z,982.87
2019-06-18T02:10:03.476Z,982.84
2019-06-18T02:11:16.300Z,982.81
2019-06-18T02:12:27.681Z,982.83
2019-06-18T02:13:42.390Z,982.83
2019-06-18T02:14:53.731Z,982.84
2019-06-18T02:16:05.707Z,982.87
2019-06-18T02:17:18.311Z,982.83
2019-06-18T02:18:33.637Z,982.83
2019-06-18T02:19:46.150Z,982.85
2019-06-18T02:20:58.055Z,982.86
2019-06-18T02:22:09.911Z,982.88
2019-06-18T02:23:23.131Z,982.85
2019-06-18T02:24:35.791Z,982.84
2019-06-18T02:25:46.847Z,982.82
2019-06-18T02:26:58.424Z,982.9
2019-06-18T02:28:13.503Z,982.92
2019-06-18T02:29:25.641Z,982.89
2019-06-18T02:30:37.701Z,982.9
2019-06-18T02:31:53.569Z,982.83
2019-06-18T02:33:07.533Z,982.79
2019-06-18T02:34:24.530Z,982.82
2019-06-18T02:35:36.023Z,982.84
2019-06-18T02:36:48.954Z,982.81
2019-06-18T02:38:03.309Z,982.83
2019-06-18T02:39:15.897Z,982.8
2019-06-18T02:40:27.782Z,982.84
2019-06-18T02:41:42.462Z,982.82
2019-06-18T02:42:53.682Z,982.8
2019-06-18T02:44:06.343Z,982.81
2019-06-18T02:45:20.800Z,982.8
2019-06-18T02:46:34.270Z,982.83
2019-06-18T02:47:45.593Z,982.81
2019-06-18T02:48:58.319Z,982.84
2019-06-18T02:50:10.336Z,982.8
2019-06-18T02:51:23.174Z,982.78
2019-06-18T02:52:35.540Z,982.77
2019-06-18T02:53:46.383Z,982.76
2019-06-18T02:54:58.817Z,982.78
2019-06-18T02:56:10.163Z,982.7
2019-06-18T02:57:23.121Z,982.68
2019-06-18T02:58:35.238Z,982.69
2019-06-18T02:59:47.361Z,982.7
2019-06-18T03:00:58.558Z,982.68
2019-06-18T03:02:13.350Z,982.7
2019-06-18T03:03:26.133Z,982.72
2019-06-18T03:04:37.823Z,982.68
2019-06-18T03:05:48.408Z,982.64
2019-06-18T03:07:03.220Z,982.63
2019-06-18T03:08:16.183Z,982.66
2019-06-18T03:09:28.033Z,982.69
2019-06-18T03:10:40.175Z,982.76
2019-06-18T03:11:53.548Z,982.75
2019-06-18T03:13:05.770Z,982.75
2019-06-18T03:14:18.485Z,982.79
2019-06-18T03:15:34.122Z,982.79
2019-06-18T03:16:45.840Z,982.8
2019-06-18T03:17:57.797Z,982.77
2019-06-18T03:19:12.815Z,982.69
2019-06-18T03:20:23.642Z,982.71
2019-06-18T03:21:36.545Z,982.74
2019-06-18T03:22:48.088Z,982.8
2019-06-18T03:24:02.465Z,982.77
2019-06-18T03:25:13.839Z,982.77
2019-06-18T03:26:26.127Z,982.82
2019-06-18T03:27:38.238Z,982.83
2019-06-18T03:28:53.331Z,982.83
2019-06-18T03:30:05.420Z,982.8
2019-06-18T03:31:17.806Z,982.82
2019-06-18T03:32:35.649Z,982.84
2019-06-18T03:33:48.121Z,982.85
2019-06-18T03:35:06.460Z,982.89
2019-06-18T03:36:17.898Z,982.92
2019-06-18T03:37:33.650Z,982.95
2019-06-18T03:38:45.286Z,982.89
2019-06-18T03:39:57.548Z,982.87
2019-06-18T03:41:13.361Z,982.82
2019-06-18T03:42:25.273Z,982.8
2019-06-18T03:43:36.183Z,982.81
2019-06-18T03:44:47.826Z,982.81
2019-06-18T03:45:59.045Z,982.75
2019-06-18T03:47:12.844Z,982.8
2019-06-18T03:48:23.621Z,982.83
2019-06-18T03:49:35.114Z,982.84
2019-06-18T03:50:45.743Z,982.8
2019-06-18T03:51:58.617Z,982.8
2019-06-18T03:53:13.827Z,982.77
2019-06-18T03:54:26.143Z,982.8
2019-06-18T03:55:39.040Z,982.76
2019-06-18T03:56:53.232Z,982.81
2019-06-18T03:58:06.222Z,982.74
2019-06-18T03:59:18.000Z,982.74
2019-06-18T04:00:30.009Z,982.69
2019-06-18T04:01:44.264Z,982.64
2019-06-18T04:02:55.999Z,982.65
2019-06-18T04:04:08.532Z,982.66
2019-06-18T04:05:23.067Z,982.6
2019-06-18T04:06:35.976Z,982.66
2019-06-18T04:07:46.832Z,982.62
2019-06-18T04:08:58.782Z,982.7
2019-06-18T04:10:12.465Z,982.69
2019-06-18T04:11:23.499Z,982.7
2019-06-18T04:12:35.484Z,982.72
2019-06-18T04:13:46.029Z,982.74
2019-06-18T04:14:58.417Z,982.72
2019-06-18T04:16:13.843Z,982.82
2019-06-18T04:17:25.266Z,982.84
2019-06-18T04:18:37.521Z,982.83
2019-06-18T04:19:49.572Z,982.75
2019-06-18T04:21:02.387Z,982.8
2019-06-18T04:22:13.624Z,982.79
2019-06-18T04:23:25.956Z,982.78
2019-06-18T04:24:38.012Z,982.76
2019-06-18T04:25:49.903Z,982.75
2019-06-18T04:27:03.668Z,982.79
2019-06-18T04:28:15.416Z,982.81
2019-06-18T04:29:27.742Z,982.85
2019-06-18T04:30:43.985Z,982.86
2019-06-18T04:31:56.303Z,982.85
2019-06-18T04:33:08.078Z,982.86
2019-06-18T04:34:23.358Z,982.85
2019-06-18T04:35:35.755Z,982.87
2019-06-18T04:36:47.675Z,982.8
2019-06-18T04:37:58.590Z,982.86
2019-06-18T04:39:13.189Z,982.85
2019-06-18T04:40:25.551Z,982.85
2019-06-18T04:41:37.578Z,982.75
2019-06-18T04:42:48.531Z,982.83
2019-06-18T04:44:00.029Z,982.85
2019-06-18T04:45:13.669Z,982.81
2019-06-18T04:46:26.444Z,982.82
2019-06-18T04:47:37.846Z,982.9
2019-06-18T04:48:53.188Z,982.92
2019-06-18T04:50:06.439Z,982.95
2019-06-18T04:51:18.492Z,982.97
2019-06-18T04:52:33.040Z,982.97
2019-06-18T04:53:45.859Z,982.93
2019-06-18T04:54:58.713Z,982.97
2019-06-18T04:56:13.872Z,982.95
2019-06-18T04:57:25.329Z,982.91
2019-06-18T04:58:36.035Z,982.94
2019-06-18T04:59:48.518Z,982.86
2019-06-18T05:01:03.272Z,982.88
2019-06-18T05:02:16.165Z,982.84
2019-06-18T05:03:28.047Z,982.85
2019-06-18T05:04:43.661Z,982.85
2019-06-18T05:05:55.160Z,982.85
2019-06-18T05:07:07.169Z,982.85
2019-06-18T05:08:18.670Z,982.85
2019-06-18T05:09:32.451Z,982.88
2019-06-18T05:10:43.559Z,982.82
2019-06-18T05:11:56.105Z,982.87
2019-06-18T05:13:08.806Z,982.92
2019-06-18T05:14:23.218Z,982.88
2019-06-18T05:15:36.307Z,982.86
2019-06-18T05:16:48.759Z,982.88
2019-06-18T05:18:03.456Z,982.91
2019-06-18T05:19:15.700Z,982.91
2019-06-18T05:20:28.003Z,982.91
2019-06-18T05:21:42.756Z,982.91
2019-06-18T05:22:53.842Z,982.95
2019-06-18T05:24:05.451Z,982.95
2019-06-18T05:25:18.216Z,982.95
2019-06-18T05:26:32.625Z,982.99
2019-06-18T05:27:46.774Z,982.96
2019-06-18T05:28:57.749Z,982.99
2019-06-18T05:30:12.879Z,983.02
2019-06-18T05:31:25.378Z,983.02
2019-06-18T05:32:36.729Z,982.99
2019-06-18T05:33:48.437Z,983.02
2019-06-18T05:35:03.913Z,983.02
2019-06-18T05:36:15.465Z,983.01
2019-06-18T05:37:26.375Z,982.96
2019-06-18T05:38:38.194Z,982.96
2019-06-18T05:39:53.548Z,982.89
2019-06-18T05:41:06.560Z,982.94
2019-06-18T05:42:18.939Z,982.96
2019-06-18T05:43:33.750Z,982.9
2019-06-18T05:44:45.979Z,982.9
2019-06-18T05:45:58.719Z,982.94
2019-06-18T05:47:13.160Z,982.92
2019-06-18T05:48:26.363Z,982.87
2019-06-18T05:49:58.737Z,982.85
2019-06-18T05:51:13.341Z,982.86
2019-06-18T05:52:34.278Z,982.88
2019-06-18T05:53:47.749Z,982.86
2019-06-18T05:55:04.143Z,982.88
2019-06-18T05:56:15.354Z,982.84
2019-06-18T05:57:26.431Z,982.83
2019-06-18T05:58:38.080Z,982.86
2019-06-18T05:59:53.435Z,982.84
2019-06-18T06:01:06.368Z,982.87
2019-06-18T06:02:18.529Z,982.9
2019-06-18T06:03:32.842Z,982.89
2019-06-18T06:04:45.328Z,982.93
2019-06-18T06:05:56.188Z,982.91
2019-06-18T06:07:08.474Z,982.95
2019-06-18T06:08:23.285Z,982.89
2019-06-18T06:09:35.849Z,982.85
2019-06-18T06:10:48.465Z,982.86
2019-06-18T06:12:03.018Z,982.86
2019-06-18T06:13:13.803Z,982.79
2019-06-18T06:14:25.992Z,982.8
2019-06-18T06:15:38.339Z,982.75
2019-06-18T06:16:54.528Z,982.74
2019-06-18T06:18:05.809Z,982.68
2019-06-18T06:19:18.305Z,982.68
2019-06-18T06:20:32.822Z,982.72
2019-06-18T06:21:46.066Z,982.66
2019-06-18T06:22:58.529Z,982.69
2019-06-18T06:24:13.854Z,982.72
2019-06-18T06:25:25.525Z,982.7
2019-06-18T06:26:39.700Z,982.76
2019-06-18T06:27:53.752Z,982.78
2019-06-18T06:29:05.933Z,982.73
2019-06-18T06:30:17.744Z,982.76
2019-06-18T06:31:32.333Z,982.8
2019-06-18T06:32:43.892Z,982.78
2019-06-18T06:33:56.104Z,982.79
2019-06-18T06:35:10.078Z,982.81
2019-06-18T06:36:23.275Z,982.82
2019-06-18T06:37:34.095Z,982.84
2019-06-18T06:38:45.941Z,982.81
2019-06-18T06:39:58.519Z,982.8
2019-06-18T06:41:13.724Z,982.8
2019-06-18T06:42:25.490Z,982.8
2019-06-18T06:43:37.431Z,982.84
2019-06-18T06:44:48.383Z,982.78
2019-06-18T06:45:59.861Z,982.84
2019-06-18T06:47:15.036Z,982.8
2019-06-18T06:48:28.204Z,982.81
2019-06-18T06:49:43.056Z,982.82
2019-06-18T06:50:56.002Z,982.83
2019-06-18T06:52:08.267Z,982.81
2019-06-18T06:53:23.227Z,982.75
2019-06-18T06:54:35.923Z,982.78
2019-06-18T06:55:48.624Z,982.7
2019-06-18T06:57:03.323Z,982.75
2019-06-18T06:58:25.678Z,982.71
2019-06-18T06:59:43.824Z,982.69
2019-06-18T07:00:56.317Z,982.7
2019-06-18T07:02:08.720Z,982.71
2019-06-18T07:03:24.076Z,982.72
2019-06-18T07:04:36.324Z,982.73
2019-06-18T07:05:47.429Z,982.72
2019-06-18T07:07:02.685Z,982.73
2019-06-18T07:08:13.730Z,982.75
2019-06-18T07:09:25.220Z,982.76
2019-06-18T07:10:38.542Z,982.77
2019-06-18T07:11:54.129Z,982.76
2019-06-18T07:13:05.363Z,982.75
2019-06-18T07:14:15.736Z,982.7
2019-06-18T07:15:26.758Z,982.65
2019-06-18T07:16:40.126Z,982.62
2019-06-18T07:17:53.571Z,982.67
2019-06-18T07:19:06.123Z,982.67
2019-06-18T07:20:17.675Z,982.67
2019-06-18T07:21:28.574Z,982.65
2019-06-18T07:22:44.172Z,982.7
2019-06-18T07:23:55.723Z,982.65
2019-06-18T07:25:08.246Z,982.68
2019-06-18T07:26:19.961Z,982.67
2019-06-18T07:27:34.293Z,982.67
2019-06-18T07:28:45.416Z,982.64
2019-06-18T07:29:58.456Z,982.65
2019-06-18T07:31:13.783Z,982.63
2019-06-18T07:32:26.076Z,982.63
2019-06-18T07:33:38.656Z,982.63
2019-06-18T07:34:53.923Z,982.59
2019-06-18T07:36:05.590Z,982.62
2019-06-18T07:37:17.700Z,982.59
2019-06-18T07:38:28.679Z,982.57
2019-06-18T07:39:43.073Z,982.56
2019-06-18T07:40:55.533Z,982.54
2019-06-18T07:42:08.055Z,982.55
2019-06-18T07:43:23.620Z,982.54
2019-06-18T07:44:35.745Z,982.57
2019-06-18T07:45:48.008Z,982.53
2019-06-18T07:47:03.952Z,982.49
2019-06-18T07:48:15.685Z,982.46
2019-06-18T07:49:28.135Z,982.47
2019-06-18T07:50:44.239Z,982.45
2019-06-18T07:51:55.885Z,982.46
2019-06-18T07:53:08.304Z,982.46
2019-06-18T07:54:23.027Z,982.44
2019-06-18T07:55:34.325Z,982.42
2019-06-18T07:56:46.285Z,982.44
2019-06-18T07:57:57.922Z,982.45
2019-06-18T07:59:12.831Z,982.42
2019-06-18T08:00:25.536Z,982.32
2019-06-18T08:01:38.510Z,982.31
2019-06-18T08:02:53.096Z,982.26
2019-06-18T08:04:06.213Z,982.25
2019-06-18T08:05:18.724Z,982.32
2019-06-18T08:06:29.805Z,982.28
2019-06-18T08:07:43.093Z,982.29
2019-06-18T08:08:55.688Z,982.17
2019-06-18T08:10:08.463Z,982.18
2019-06-18T08:11:22.741Z,982.22
2019-06-18T08:12:34.169Z,982.28
2019-06-18T08:13:46.205Z,982.28
2019-06-18T08:14:58.650Z,982.22
2019-06-18T08:16:13.630Z,982.21
2019-06-18T08:17:26.084Z,982.16
2019-06-18T08:18:38.039Z,982.08
2019-06-18T08:19:49.998Z,982.16
2019-06-18T08:21:04.480Z,982.17
2019-06-18T08:22:17.924Z,982.2
2019-06-18T08:23:32.997Z,982.18
2019-06-18T08:24:44.233Z,982.09
2019-06-18T08:25:55.944Z,982.16
2019-06-18T08:27:08.204Z,982.14
2019-06-18T08:28:22.318Z,982.1
2019-06-18T08:29:33.517Z,982.11
2019-06-18T08:30:45.387Z,982.09
2019-06-18T08:32:01.526Z,982.09
2019-06-18T08:33:16.932Z,982.1
2019-06-18T08:34:28.193Z,982.03
2019-06-18T08:35:43.291Z,982.05
2019-06-18T08:36:54.021Z,982.03
2019-06-18T08:38:06.332Z,982.08
2019-06-18T08:39:18.075Z,982.08
2019-06-18T08:40:30.126Z,982.1
2019-06-18T08:41:43.283Z,982.02
2019-06-18T08:42:55.028Z,982.08
2019-06-18T08:44:06.534Z,981.91
2019-06-18T08:45:18.685Z,982.07
2019-06-18T08:46:32.812Z,982.24
2019-06-18T08:47:43.939Z,982.06
2019-06-18T08:48:56.414Z,982.07
2019-06-18T08:50:08.167Z,982.13
2019-06-18T08:51:23.053Z,982.08
2019-06-18T08:52:33.819Z,982.09
2019-06-18T08:53:45.950Z,982.05
2019-06-18T08:54:58.572Z,982.06
2019-06-18T08:56:12.071Z,982.09
2019-06-18T08:57:26.359Z,982.09
2019-06-18T08:58:37.714Z,982.09
2019-06-18T08:59:48.263Z,982.13
2019-06-18T09:01:00.179Z,982.16
2019-06-18T09:02:13.564Z,982.1
2019-06-18T09:03:29.229Z,982.1
2019-06-18T09:04:42.582Z,982.09
2019-06-18T09:05:53.885Z,982.1
2019-06-18T09:07:06.520Z,982.11
2019-06-18T09:08:18.885Z,982.12
2019-06-18T09:09:32.112Z,982.1
2019-06-18T09:10:42.816Z,982.09
2019-06-18T09:11:54.223Z,982.11
2019-06-18T09:13:06.348Z,982.02
2019-06-18T09:14:18.788Z,982.08
2019-06-18T09:15:33.610Z,982.09
2019-06-18T09:16:45.926Z,982.05
2019-06-18T09:17:57.968Z,982.09
2019-06-18T09:19:08.791Z,982.09
2019-06-18T09:20:23.516Z,982.05
2019-06-18T09:21:34.304Z,982.03
2019-06-18T09:22:46.125Z,982.04
2019-06-18T09:23:58.256Z,982.03
2019-06-18T09:25:14.087Z,981.96
2019-06-18T09:26:25.610Z,981.94
2019-06-18T09:27:37.977Z,981.96
2019-06-18T09:28:49.035Z,982
2019-06-18T09:30:03.608Z,982.03
2019-06-18T09:31:15.449Z,981.96
2019-06-18T09:32:26.184Z,982.01
2019-06-18T09:33:38.301Z,982.03
2019-06-18T09:34:53.250Z,982.06
2019-06-18T09:36:06.049Z,981.96
2019-06-18T09:37:18.437Z,981.98
2019-06-18T09:38:33.154Z,981.98
2019-06-18T09:39:46.744Z,982.02
2019-06-18T09:40:58.767Z,982.02
2019-06-18T09:42:13.148Z,981.99
2019-06-18T09:43:25.199Z,982.06
2019-06-18T09:44:35.759Z,981.98
2019-06-18T09:45:47.548Z,981.98
2019-06-18T09:46:58.550Z,982.04
2019-06-18T09:48:13.463Z,982.07
2019-06-18T09:49:26.262Z,982.08
2019-06-18T09:50:37.914Z,982.03
2019-06-18T09:51:53.077Z,982.07
2019-06-18T09:53:05.309Z,982.05
2019-06-18T09:54:23.119Z,982.06
2019-06-18T09:55:35.494Z,982.07
2019-06-18T09:56:48.437Z,982.01
2019-06-18T09:58:03.491Z,982.03
2019-06-18T09:59:15.453Z,982.03
2019-06-18T10:00:27.436Z,982.08
2019-06-18T10:01:38.486Z,982.12
2019-06-18T10:02:53.942Z,982.12
2019-06-18T10:04:05.748Z,982.11
2019-06-18T10:05:18.503Z,982.17
2019-06-18T10:06:32.561Z,982.19
2019-06-18T10:07:44.015Z,982.15
2019-06-18T10:08:55.228Z,982.16
2019-06-18T10:10:06.176Z,982.17
2019-06-18T10:11:15.871Z,982.2
2019-06-18T10:12:25.864Z,982.18
2019-06-18T10:13:37.974Z,982.13
2019-06-18T10:14:50.277Z,982.17
2019-06-18T10:16:04.305Z,982.18
2019-06-18T10:17:16.486Z,982.17
2019-06-18T10:18:28.597Z,982.19
2019-06-18T10:19:43.555Z,982.25
2019-06-18T10:20:55.545Z,982.2
2019-06-18T10:22:07.833Z,982.23
2019-06-18T10:23:21.510Z,982.31
2019-06-18T10:24:33.062Z,982.34
2019-06-18T10:25:45.215Z,982.34
2019-06-18T10:26:58.012Z,982.38
2019-06-18T10:28:12.906Z,982.36
2019-06-18T10:29:32.562Z,982.38
2019-06-18T10:31:14.647Z,982.46
2019-06-18T10:32:26.267Z,982.4
2019-06-18T10:33:36.210Z,982.44
2019-06-18T10:34:47.993Z,982.39
2019-06-18T10:36:02.982Z,982.36
2019-06-18T10:37:12.944Z,982.36
2019-06-18T10:38:22.903Z,982.35
2019-06-18T10:39:35.788Z,982.37
2019-06-18T10:40:48.221Z,982.4
2019-06-18T10:42:00.518Z,982.38
2019-06-18T10:43:13.545Z,982.39
2019-06-18T10:44:26.031Z,982.35
2019-06-18T10:45:38.360Z,982.31
2019-06-18T10:46:52.395Z,982.3
2019-06-18T10:48:05.772Z,982.31
2019-06-18T10:49:18.724Z,982.33
2019-06-18T10:50:32.781Z,982.32
2019-06-18T10:51:56.040Z,982.37
2019-06-18T10:53:08.673Z,982.32
2019-06-18T10:54:23.409Z,982.29
2019-06-18T10:55:35.644Z,982.32
2019-06-18T10:56:48.498Z,982.38
2019-06-18T10:58:03.394Z,982.45
2019-06-18T10:59:15.540Z,982.37
2019-06-18T11:00:27.795Z,982.31
2019-06-18T11:01:40.338Z,982.3
2019-06-18T11:02:53.355Z,982.2
2019-06-18T11:04:05.293Z,982.18
2019-06-18T11:05:18.040Z,982.17
2019-06-18T11:06:29.862Z,982.18
2019-06-18T11:07:51.323Z,982.14
2019-06-18T11:09:16.166Z,982.15
2019-06-18T11:10:28.470Z,982.15
2019-06-18T11:11:38.406Z,982.08
2019-06-18T11:12:48.360Z,982.11
2019-06-18T11:14:08.908Z,982.11
2019-06-18T11:15:25.992Z,982.11
2019-06-18T11:16:38.509Z,982.12
2019-06-18T11:17:50.259Z,982.13
2019-06-18T11:19:03.493Z,982.09
2019-06-18T11:20:15.884Z,982.09
2019-06-18T11:21:28.089Z,982.1
2019-06-18T11:22:43.846Z,982.13
2019-06-18T11:23:57.009Z,982.14
2019-06-18T11:25:09.223Z,982.13
2019-06-18T11:26:24.224Z,982.19
2019-06-18T11:27:36.512Z,982.27
2019-06-18T11:28:47.796Z,982.18
2019-06-18T11:29:58.875Z,982.19
2019-06-18T11:31:14.200Z,982.22
2019-06-18T11:32:26.717Z,982.2
2019-06-18T11:33:36.689Z,982.18
2019-06-18T11:34:46.681Z,982.22
2019-06-18T11:35:56.452Z,982.17
2019-06-18T11:37:09.100Z,982.2
2019-06-18T11:38:19.061Z,982.19
2019-06-18T11:39:32.835Z,982.22
2019-06-18T11:40:43.996Z,982.18
2019-06-18T11:41:56.054Z,982.17
2019-06-18T11:43:09.131Z,982.16
2019-06-18T11:44:23.263Z,982.16
2019-06-18T11:45:33.333Z,982.24
2019-06-18T11:46:45.739Z,982.2
2019-06-18T11:47:58.305Z,982.21
2019-06-18T11:49:15.403Z,982.22
2019-06-18T11:50:26.266Z,982.2
2019-06-18T11:51:36.335Z,982.19
2019-06-18T11:52:48.451Z,982.16
2019-06-18T11:54:03.252Z,982.12
2019-06-18T11:55:15.628Z,982.19
2019-06-18T11:56:28.403Z,982.12
2019-06-18T11:57:42.492Z,982.1
2019-06-18T11:58:53.767Z,982.11
2019-06-18T12:00:05.646Z,982.05
2019-06-18T12:01:18.313Z,982.09
2019-06-18T12:02:30.408Z,982.11
2019-06-18T12:03:43.316Z,982.07
2019-06-18T12:04:55.837Z,982.11
2019-06-18T12:06:07.588Z,982.04
2019-06-18T12:07:20.136Z,982.03
2019-06-18T12:08:30.168Z,982.03
2019-06-18T12:09:39.875Z,981.99
2019-06-18T12:11:00.786Z,982.27
2019-06-18T12:12:14.106Z,981.94
2019-06-18T12:13:26.535Z,982.02
2019-06-18T12:14:38.887Z,981.96
2019-06-18T12:15:50.037Z,981.92
2019-06-18T12:17:04.210Z,981.89
2019-06-18T12:18:16.261Z,981.94
2019-06-18T12:19:27.597Z,981.99
2019-06-18T12:20:38.685Z,982.01
2019-06-18T12:21:53.846Z,982.09
2019-06-18T12:23:06.528Z,981.95
2019-06-18T12:24:19.729Z,981.72
2019-06-18T12:25:33.400Z,981.77
2019-06-18T12:26:45.758Z,981.83
2019-06-18T12:27:58.638Z,981.83
2019-06-18T12:29:13.923Z,981.92
2019-06-18T12:30:26.165Z,981.97
2019-06-18T12:31:36.148Z,981.81
2019-06-18T12:32:53.419Z,981.81
2019-06-18T12:34:06.097Z,981.87
2019-06-18T12:35:24.613Z,981.9
2019-06-18T12:36:35.690Z,981.82
2019-06-18T12:37:48.598Z,981.83
2019-06-18T12:39:04.086Z,981.86
2019-06-18T12:40:16.386Z,981.89
2019-06-18T12:41:29.004Z,981.9
2019-06-18T12:42:42.799Z,981.86
2019-06-18T12:43:53.864Z,981.8
2019-06-18T12:45:05.670Z,981.74
2019-06-18T12:46:18.165Z,981.71
2019-06-18T12:47:33.376Z,981.79
2019-06-18T12:48:45.905Z,981.84
2019-06-18T12:49:58.041Z,981.97
2019-06-18T12:51:09.038Z,981.92
2019-06-18T12:52:23.369Z,981.76
2019-06-18T12:53:35.478Z,981.7
2019-06-18T12:55:13.745Z,981.82
2019-06-18T12:56:26.281Z,981.82
2019-06-18T12:57:38.442Z,981.51
2019-06-18T12:58:53.225Z,981.59
2019-06-18T13:00:33.641Z,981.57
2019-06-18T13:01:45.149Z,981.57
2019-06-18T13:02:55.974Z,981.52
2019-06-18T13:04:09.028Z,981.61
2019-06-18T13:05:22.791Z,981.56
2019-06-18T13:06:33.936Z,981.53
2019-06-18T13:07:46.045Z,981.49
2019-06-18T13:08:58.736Z,981.53
2019-06-18T13:10:13.816Z,981.56
2019-06-18T13:11:25.993Z,981.5
2019-06-18T13:12:38.238Z,981.56
2019-06-18T13:13:53.569Z,981.55
2019-06-18T13:15:07.908Z,981.5
2019-06-18T13:16:25.921Z,981.48
2019-06-18T13:17:38.922Z,981.52
2019-06-18T13:18:53.865Z,981.52
2019-06-18T13:20:06.285Z,981.54
2019-06-18T13:21:18.631Z,981.43
2019-06-18T13:22:32.775Z,981.42
2019-06-18T13:23:45.410Z,981.42
2019-06-18T13:25:00.563Z,981.4
2019-06-18T13:26:13.209Z,981.37
2019-06-18T13:27:25.602Z,981.45
2019-06-18T13:28:36.433Z,981.44
2019-06-18T13:29:48.376Z,981.36
2019-06-18T13:31:05.472Z,981.38
2019-06-18T13:32:18.784Z,981.37
2019-06-18T13:33:30.525Z,981.44
2019-06-18T13:34:43.589Z,981.46
2019-06-18T13:35:55.750Z,981.49
2019-06-18T13:37:08.627Z,981.42
2019-06-18T13:38:20.358Z,981.36
2019-06-18T13:39:34.009Z,981.41
2019-06-18T13:40:45.786Z,981.48
2019-06-18T13:41:59.214Z,981.38
2019-06-18T13:43:13.802Z,981.43
2019-06-18T13:44:25.568Z,981.49
2019-06-18T13:45:38.320Z,981.5
2019-06-18T13:46:52.420Z,981.39
2019-06-18T13:48:04.309Z,981.41
2019-06-18T13:49:18.795Z,981.42
2019-06-18T13:50:32.581Z,981.39
2019-06-18T13:51:43.656Z,981.36
2019-06-18T13:52:57.256Z,981.37
2019-06-18T13:54:15.536Z,981.28
2019-06-18T13:55:28.126Z,981.27
2019-06-18T13:56:43.739Z,981.29
2019-06-18T13:57:55.876Z,981.34
2019-06-18T13:59:08.513Z,981.39
2019-06-18T14:00:23.618Z,981.38
2019-06-18T14:01:33.572Z,981.31
2019-06-18T14:02:43.526Z,981.3
2019-06-18T14:03:55.988Z,981.27
2019-06-18T14:05:08.828Z,981.26
2019-06-18T14:06:21.064Z,981.22
2019-06-18T14:07:35.679Z,981.27
2019-06-18T14:08:48.282Z,981.31
2019-06-18T14:10:03.674Z,981.36
2019-06-18T14:11:16.233Z,981.33
2019-06-18T14:12:28.129Z,981.32
2019-06-18T14:13:43.153Z,981.26
2019-06-18T14:14:53.079Z,981.23
2019-06-18T14:16:05.532Z,981.21
2019-06-18T14:17:16.579Z,981.18
2019-06-18T14:18:28.826Z,981.18
2019-06-18T14:19:43.269Z,981.16
2019-06-18T14:20:54.416Z,981.19
2019-06-18T14:22:04.523Z,981.13
2019-06-18T14:23:16.631Z,981.05
2019-06-18T14:24:28.405Z,980.97
2019-06-18T14:25:48.387Z,981.03
2019-06-18T14:27:08.923Z,980.99
2019-06-18T14:28:18.892Z,980.99
2019-06-18T14:29:32.760Z,980.93
2019-06-18T14:30:45.173Z,980.89
2019-06-18T14:31:56.471Z,980.91
2019-06-18T14:35:06.184Z,980.8
2019-06-18T14:36:23.505Z,980.82
2019-06-18T14:37:36.903Z,980.8
2019-06-18T14:38:54.027Z,980.81
2019-06-18T14:40:06.576Z,980.8
2019-06-18T14:41:22.520Z,980.75
2019-06-18T14:42:36.020Z,980.77
2019-06-18T14:43:47.326Z,980.84
2019-06-18T14:44:57.282Z,980.9
2019-06-18T14:46:06.716Z,980.93
2019-06-18T14:47:19.083Z,980.95
2019-06-18T14:48:29.039Z,980.91
2019-06-18T14:49:38.995Z,980.83
2019-06-18T14:50:48.956Z,980.76
2019-06-18T14:52:03.110Z,980.8
2019-06-18T14:53:15.499Z,980.84
2019-06-18T14:54:33.432Z,980.84
2019-06-18T14:55:46.064Z,980.84
2019-06-18T14:56:57.564Z,980.8
2019-06-18T14:58:10.094Z,980.8
2019-06-18T14:59:22.936Z,980.73
2019-06-18T15:00:35.712Z,980.69
2019-06-18T15:01:47.888Z,980.66
2019-06-18T15:03:04.229Z,980.65
2019-06-18T15:04:16.334Z,980.65
2019-06-18T15:05:28.002Z,980.66
2019-06-18T15:06:42.818Z,980.65
2019-06-18T15:07:53.826Z,980.61
2019-06-18T15:09:05.834Z,980.65
2019-06-18T15:10:18.772Z,980.64
2019-06-18T15:11:36.435Z,980.65
2019-06-18T15:12:48.682Z,980.67
2019-06-18T15:14:01.009Z,980.66
2019-06-18T15:15:13.111Z,980.64
2019-06-18T15:16:26.392Z,980.63
2019-06-18T15:17:38.158Z,980.62